This is the latest recevied weather packets stored in our database for station/object DM4XI-13. If no packets are shown the sender has not sent any weather packets the latest 10 day(s).
| Time | Temp. | Humidity | Pressure | Rain* | Wind** | Luminosity | Snow |
|---|---|---|---|---|---|---|---|
| 1778159495 | 13.33° C | 68% | 1011.7 hPa | 0 mm | 1.79 m/s, 231° | 424 W/m² | - |
| 1778159434 | 13.33° C | 71% | 1011.8 hPa | 0 mm | 0.89 m/s, 326° | 421 W/m² | - |
| 1778159373 | 13.33° C | 70% | 1011.8 hPa | 0 mm | 1.79 m/s, 205° | 395 W/m² | - |
| 1778159312 | 13.33° C | 69% | 1011.9 hPa | 0 mm | 1.79 m/s, 281° | 376 W/m² | - |
| 1778159251 | 13.33° C | 73% | 1011.8 hPa | 0 mm | 0.45 m/s, 192° | 370 W/m² | - |
| 1778159189 | 12.78° C | 72% | 1011.9 hPa | 0 mm | 1.34 m/s, 255° | 379 W/m² | - |
| 1778159129 | 12.78° C | 74% | 1011.8 hPa | 0 mm | 0.45 m/s, 206° | 394 W/m² | - |
| 1778159068 | 12.78° C | 75% | 1011.8 hPa | 0 mm | 0.89 m/s, 283° | 408 W/m² | - |
| 1778159006 | 12.78° C | 74% | 1012 hPa | 0 mm | 1.79 m/s, 286° | 408 W/m² | - |
| 1778158945 | 12.78° C | 73% | 1011.8 hPa | 0 mm | 0.89 m/s, 258° | 408 W/m² | - |
| 1778158885 | 12.78° C | 73% | 1011.9 hPa | 0 mm | 1.79 m/s, 276° | 394 W/m² | - |
| 1778158824 | 12.78° C | 72% | 1011.8 hPa | 0 mm | 2.24 m/s, 228° | 357 W/m² | - |
| 1778158763 | 12.78° C | 72% | 1011.8 hPa | 0 mm | 1.34 m/s, 276° | 364 W/m² | - |
| 1778158702 | 13.33° C | 72% | 1011.7 hPa | 0 mm | 0.89 m/s, 259° | 342 W/m² | - |
| 1778158641 | 13.33° C | 70% | 1011.9 hPa | 0 mm | 1.79 m/s, 269° | 331 W/m² | - |
| 1778158579 | 13.33° C | 68% | 1011.8 hPa | 0 mm | 1.79 m/s, 191° | 311 W/m² | - |
| 1778158518 | 13.33° C | 69% | 1011.6 hPa | 0 mm | 1.79 m/s, 270° | 297 W/m² | - |
| 1778158457 | 13.33° C | 71% | 1011.7 hPa | 0 mm | 1.79 m/s, 269° | 273 W/m² | - |
| 1778158397 | 13.33° C | 70% | 1011.6 hPa | 0 mm | 1.79 m/s, 222° | 260 W/m² | - |
| 1778158335 | 13.33° C | 71% | 1011.9 hPa | 0 mm | 1.79 m/s, 175° | 266 W/m² | - |
| 1778158274 | 13.33° C | 71% | 1011.7 hPa | 0 mm | 0.89 m/s, 203° | 272 W/m² | - |
| 1778158213 | 13.33° C | 70% | 1011.6 hPa | 0 mm | 0.45 m/s, 192° | 268 W/m² | - |
| 1778158153 | 13.89° C | 70% | 1011.7 hPa | 0 mm | 0.45 m/s, 195° | 255 W/m² | - |
| 1778158091 | 13.89° C | 70% | 1011.6 hPa | 0 mm | 0.89 m/s, 185° | 219 W/m² | - |
| 1778158031 | 13.89° C | 70% | 1011.7 hPa | 0 mm | 0.45 m/s, 304° | 232 W/m² | - |
* Rain latest hour (hover to see other rain measurements)
** Current wind speed in m/s (hover to see current wind gust speed)